Akron Fulton International Airport
KAKR : now visible

Airfield :











YOU CAN JOIN US ON...

 
LOGIN :

Register | Disclaimer

   EN    FR    IT 

 









Legend :    VFR   Marginal VFR   IFR   Intensive IFR   Very Intensive IFR
Visi :
Ceiling :
>= 8 km
>= 3000ft
5 to 8 km
1000 to 3000 ft
1500m to 5 km
500 to 1000 ft
800 to 1500m
200 to 500 ft
< 800m
< 200 ft
Symbols :   Thunderstorms  Fog  Heavy snow  Heavy precipitations  Wind > 20 kt






- Airport Elevation : 1067 ft


KAKR - Akron Fulton International

CURRENT METAR :
  • 281454Z AUTO 28003KT 10SM BKN010 BKN020 OVC044 21/18 A2996 RMK AO2 RAE37 CIG 006V013 SLP136 P0005 60007 T02110178 56012

EXPIRED METARs :
  • 281421Z AUTO 29003KT 3SM -RA SCT004 BKN022 OVC029 21/18 A2996 RMK AO2 P0005 T02060178
  • 281402Z AUTO 05003KT 1 3/4SM +RA FEW007 BKN024 OVC032 21/18 A2996 RMK AO2 P0003 T02060178
  • 281354Z AUTO 00000KT 9SM -RA SCT007 BKN026 OVC032 21/18 A2997 RMK AO2 SLP139 P0000 T02060178
  • 281321Z AUTO 26005KT 10SM -RA BKN007 BKN011 OVC060 20/18 A2998 RMK AO2 P0000 T02000178
  • 281312Z AUTO 27004KT 10SM -RA SCT007 BKN011 OVC060 20/18 A2998 RMK AO2 P0000 T02000178
  • 281254Z AUTO 31004KT 7SM -RA BKN006 OVC050 20/18 A2998 RMK AO2 SLP143 P0002 T02000178
  • 281243Z AUTO 29003KT 10SM -RA BKN005 OVC060 20/17 A2998 RMK AO2 P0002 T02000172
  • 281231Z AUTO 00000KT 8SM -RA FEW005 OVC060 20/17 A2998 RMK AO2 P0002 T02000172
  • 281204Z AUTO 00000KT 4SM RA BR OVC060 19/18 A2999 RMK AO2 P0001 T01940178

TAF N/A
KZOB FIR / North America



MET'MAP, your aeronautical weather chart ! - Copyright ORBIFLY December 2007 - Disclaimer

ORBIFLY MET'MAP TEAM :

Programming & Development : Alexandra Zaïnal
Concept & original design : Baudouin d'Aumeries
Assistance for programming : Marc-Olivier Méhu
Technical & hardware support : Manuel Goepfert

Contact : metmap@orbifly.com




SOURCES & CREDITS :

   NOAA       Earth
Advisory